Nashville, Tennessee
Traffic Map
Current Weather Conditions
Nashville, Tennessee
Broken Clouds
Broken Clouds
21°
Feels Like: 21°
Wind Chill: 21° Ceiling: 3200
Heat Index: 21° Visibility: 10mi
Dew Point: 11° Wind: 0mph
Humidity: 53% Direction: ° ()
Pressure: 30.03in Gusts: 0mph
Raw Report DataKBNA 281753Z 00000KT 10SM BKN032 BKN039 21/11 A3003 RMK AO2 SLP165 T02060106 10217 20133 50000
Traffic Incident Summary
Active as of:
Severity:
Category:
InformationThere was an issue retrieving the traffic information for this location. Please try a different location or try again shortly.
Advertisements
Track Severe Weather on mobile